createdAt,value
2023-04-16T07:00:33.705Z,20.20
2023-04-16T07:03:05.493Z,18.30
2023-04-16T07:05:59.669Z,13.90
2023-04-16T07:08:33.986Z,16.15
2023-04-16T07:11:03.574Z,11.13
2023-04-16T07:13:32.399Z,14.02
2023-04-16T07:15:58.831Z,13.20
2023-04-16T07:18:39.204Z,13.50
2023-04-16T07:21:05.684Z,13.05
2023-04-16T07:23:40.978Z,12.88
2023-04-16T07:26:28.870Z,9.90
2023-04-16T07:28:57.043Z,11.77
2023-04-16T07:31:23.634Z,8.50
2023-04-16T07:33:51.761Z,10.25
2023-04-16T07:36:19.430Z,11.32
2023-04-16T07:38:46.020Z,8.75
2023-04-16T07:41:15.079Z,6.95
2023-04-16T07:43:41.609Z,10.50
2023-04-16T07:46:13.173Z,9.38
2023-04-16T07:48:41.667Z,9.15
2023-04-16T07:51:12.799Z,6.82
2023-04-16T07:53:41.270Z,6.80
2023-04-16T07:56:25.479Z,4.95
2023-04-16T07:59:22.042Z,7.20
2023-04-16T08:01:49.840Z,5.55
2023-04-16T08:04:16.530Z,7.05
2023-04-16T08:06:44.458Z,5.40
2023-04-16T08:09:11.206Z,4.97
2023-04-16T08:11:37.757Z,5.80
2023-04-16T08:14:04.221Z,6.13
2023-04-16T08:16:30.658Z,6.85
2023-04-16T08:18:57.167Z,5.68
2023-04-16T08:21:23.608Z,6.45
2023-04-16T08:23:51.606Z,5.43
2023-04-16T08:31:55.921Z,4.30
2023-04-16T08:34:25.563Z,4.93
2023-04-16T08:39:22.326Z,13.27
2023-04-16T08:41:51.130Z,6.10
2023-04-16T08:44:39.372Z,6.25
2023-04-16T08:47:18.613Z,3.65
2023-04-16T08:50:04.880Z,5.63
2023-04-16T08:52:43.173Z,7.32
2023-04-16T08:55:12.711Z,5.18
2023-04-16T08:57:46.028Z,6.03
2023-04-16T09:00:18.296Z,3.75
2023-04-16T09:08:41.392Z,4.90
2023-04-16T09:11:12.085Z,7.10
2023-04-16T09:13:38.510Z,5.15
2023-04-16T09:16:07.035Z,3.97
2023-04-16T09:18:33.413Z,3.58
2023-04-16T09:20:59.934Z,3.65
2023-04-16T09:23:26.287Z,4.15
2023-04-16T09:25:53.086Z,3.95
2023-04-16T09:28:36.133Z,6.40
2023-04-16T09:31:22.376Z,3.50
2023-04-16T09:34:11.372Z,5.25
2023-04-16T09:36:37.945Z,4.50
2023-04-16T09:39:08.709Z,4.05
2023-04-16T09:41:35.337Z,5.05
2023-04-16T09:44:03.360Z,3.63
2023-04-16T09:46:33.499Z,3.53
2023-04-16T09:49:08.841Z,4.03
2023-04-16T09:51:38.100Z,3.58
2023-04-16T09:54:04.752Z,4.57
2023-04-16T09:56:31.316Z,5.32
2023-04-16T09:58:59.579Z,6.97
2023-04-16T10:01:29.237Z,3.33
2023-04-16T10:04:00.462Z,6.65
2023-04-16T10:06:29.201Z,6.95
2023-04-16T10:08:58.047Z,4.20
2023-04-16T10:11:27.120Z,4.40
2023-04-16T10:13:53.773Z,5.57
2023-04-16T10:16:24.836Z,5.47
2023-04-16T10:18:51.842Z,5.43
2023-04-16T10:21:23.889Z,5.20
2023-04-16T10:23:51.646Z,5.72
2023-04-16T10:26:22.831Z,2.88
2023-04-16T10:28:52.363Z,2.75
2023-04-16T10:34:02.879Z,1.67
2023-04-16T10:36:38.724Z,2.35
2023-04-16T10:39:15.515Z,1.92
2023-04-16T10:41:45.511Z,1.90
2023-04-16T10:44:20.987Z,1.85
2023-04-16T10:49:19.681Z,2.13
2023-04-16T10:51:56.888Z,1.85
2023-04-16T10:54:27.192Z,3.58
2023-04-16T10:57:09.309Z,2.00
2023-04-16T10:59:40.056Z,3.30
2023-04-16T11:02:32.906Z,2.20
2023-04-16T11:05:38.840Z,2.80
2023-04-16T12:33:29.073Z,5.25
2023-04-16T12:36:32.937Z,3.20
2023-04-16T12:41:53.472Z,3.88
2023-04-16T12:44:21.624Z,3.17
2023-04-16T12:47:21.900Z,5.07
2023-04-16T14:00:51.238Z,2.60
2023-04-16T14:03:25.530Z,3.60
2023-04-16T14:06:23.426Z,3.03
2023-04-16T14:09:08.151Z,2.97
2023-04-16T14:11:45.276Z,3.42
2023-04-16T14:14:14.964Z,2.38
2023-04-16T14:35:20.926Z,2.70
2023-04-16T14:37:47.435Z,4.38
2023-04-16T14:40:13.920Z,8.57
2023-04-16T14:42:42.579Z,5.55
2023-04-16T14:45:12.297Z,2.63
2023-04-16T14:47:40.328Z,2.75
2023-04-16T14:50:07.633Z,4.22
2023-04-16T14:52:34.040Z,5.03
2023-04-16T14:55:00.478Z,2.78
2023-04-16T14:57:26.842Z,2.58
2023-04-16T14:59:53.208Z,2.30
2023-04-16T15:02:21.718Z,1.92
2023-04-16T15:04:49.735Z,2.90
2023-04-16T15:07:16.186Z,3.08
2023-04-16T15:09:42.602Z,3.00
2023-04-16T15:12:08.991Z,2.28
2023-04-16T15:14:35.377Z,2.22
2023-04-16T15:17:01.980Z,1.60
2023-04-16T15:19:28.464Z,1.70
2023-04-16T15:21:59.361Z,2.20
2023-04-16T15:24:25.874Z,4.22
2023-04-16T15:26:52.351Z,1.73
2023-04-16T15:29:18.776Z,2.33
2023-04-16T15:31:45.176Z,2.78
2023-04-16T15:34:13.976Z,3.22
2023-04-16T15:36:42.648Z,1.80
2023-04-16T15:39:18.151Z,1.67
2023-04-16T15:42:01.858Z,2.53
2023-04-16T15:44:49.568Z,2.03
2023-04-16T15:47:16.214Z,1.80
2023-04-16T15:49:43.940Z,2.50
2023-04-16T15:52:13.134Z,1.67
2023-04-16T15:54:41.187Z,2.53
2023-04-16T15:57:07.680Z,1.83
2023-04-16T15:59:34.200Z,2.10
2023-04-16T16:02:00.902Z,1.88
2023-04-16T16:04:29.829Z,2.58
2023-04-16T16:06:56.789Z,2.30
2023-04-16T16:09:28.140Z,2.20
2023-04-16T16:12:02.241Z,2.03
2023-04-16T16:14:28.946Z,1.80
2023-04-16T16:16:58.339Z,2.08
2023-04-16T16:19:27.580Z,2.00
2023-04-16T16:21:54.305Z,2.45
2023-04-16T16:24:20.896Z,2.25
2023-04-16T16:29:52.873Z,3.80
2023-04-16T16:32:30.138Z,2.35
2023-04-16T16:35:00.452Z,3.90
2023-04-16T16:37:28.457Z,6.75
2023-04-16T16:39:56.687Z,2.50
2023-04-16T16:42:23.202Z,3.80
2023-04-16T16:44:51.184Z,2.58
2023-04-16T16:47:17.801Z,4.20
2023-04-16T16:49:44.353Z,2.85
2023-04-16T16:52:18.024Z,3.38
2023-04-16T16:54:44.664Z,3.42
2023-04-16T16:57:12.951Z,3.05
2023-04-16T16:59:41.606Z,3.00
2023-04-16T17:02:11.028Z,3.00
2023-04-16T17:07:16.528Z,8.30
2023-04-16T17:09:45.275Z,5.03
2023-04-16T17:12:15.689Z,5.53
2023-04-16T17:14:49.303Z,3.53
2023-04-16T17:17:19.673Z,4.35
2023-04-16T17:19:46.217Z,3.53
2023-04-16T17:22:14.069Z,3.53
2023-04-16T17:24:40.896Z,5.97
2023-04-16T17:27:10.301Z,3.22
2023-04-16T17:29:40.990Z,3.22
2023-04-16T17:32:08.027Z,3.63
2023-04-16T17:34:36.065Z,3.85
2023-04-16T17:37:02.674Z,5.00
2023-04-16T17:39:32.037Z,3.50
2023-04-16T17:41:58.861Z,4.88
2023-04-16T17:44:28.450Z,3.47
2023-04-16T17:46:55.075Z,3.25
2023-04-16T17:49:24.316Z,4.07
2023-04-16T17:51:52.945Z,2.85
2023-04-16T17:54:19.654Z,3.80
2023-04-16T17:56:46.145Z,3.45
2023-04-16T17:59:15.069Z,4.88
2023-04-16T18:01:42.610Z,3.17
2023-04-16T18:04:09.332Z,3.42
2023-04-16T18:06:35.918Z,4.00
2023-04-16T18:09:03.773Z,7.07
2023-04-16T18:11:31.161Z,3.42
2023-04-16T18:13:57.742Z,3.45
2023-04-16T18:16:24.293Z,4.05
2023-04-16T18:18:50.713Z,2.97
2023-04-16T18:21:17.132Z,4.45
2023-04-16T18:23:43.495Z,2.80
2023-04-16T18:26:12.574Z,3.60
2023-04-16T18:28:39.183Z,3.95
2023-04-16T18:31:05.612Z,2.97
2023-04-16T18:36:01.541Z,2.80
2023-04-16T18:38:27.966Z,2.70
2023-04-16T18:40:54.391Z,2.95
2023-04-16T18:43:22.204Z,2.78
2023-04-16T18:45:48.657Z,3.78
2023-04-16T18:48:15.073Z,3.75
2023-04-16T18:50:41.475Z,2.97
2023-04-16T18:53:07.969Z,3.08
2023-04-16T18:55:34.369Z,6.55
2023-04-16T18:58:00.792Z,3.55
2023-04-16T19:00:28.632Z,3.38
2023-04-16T19:02:55.277Z,4.47
2023-04-16T19:05:21.825Z,3.00
2023-04-16T19:07:48.244Z,4.75
2023-04-16T19:10:14.645Z,3.65
2023-04-16T19:12:41.028Z,3.63
2023-04-16T19:15:07.945Z,2.80
2023-04-16T19:17:35.804Z,4.30
2023-04-16T19:20:02.325Z,3.47
2023-04-16T19:22:28.820Z,2.80
2023-04-16T19:24:56.976Z,3.20
2023-04-16T19:27:25.868Z,3.35
2023-04-16T19:29:52.328Z,3.00
2023-04-16T19:32:18.765Z,3.45
2023-04-16T19:34:47.912Z,3.60
2023-04-16T19:37:14.353Z,3.38
2023-04-16T19:39:40.856Z,3.13
2023-04-16T19:42:07.264Z,3.55
2023-04-16T19:44:33.707Z,5.00
2023-04-16T19:47:00.143Z,4.57
2023-04-16T19:49:26.638Z,4.40
2023-04-16T19:51:54.488Z,6.82
2023-04-16T19:54:20.999Z,3.30
2023-04-16T19:56:50.558Z,7.82
2023-04-16T20:01:43.406Z,5.22
2023-04-16T20:04:09.979Z,6.50
2023-04-16T20:06:36.445Z,7.63
2023-04-16T20:09:04.504Z,6.43
2023-04-16T20:11:30.947Z,6.13
2023-04-16T20:13:57.354Z,7.32
2023-04-16T20:16:24.056Z,4.95
2023-04-16T20:18:50.539Z,6.75
2023-04-16T20:21:17.037Z,8.55
2023-04-16T20:23:43.615Z,6.75
2023-04-16T20:26:13.596Z,5.63
2023-04-16T20:28:40.027Z,8.35
2023-04-16T20:31:06.471Z,8.68
2023-04-16T20:33:32.929Z,7.70
2023-04-16T20:35:59.386Z,8.20
2023-04-16T20:38:25.802Z,8.38
2023-04-16T20:40:52.251Z,7.13
2023-04-16T20:43:20.054Z,12.07
2023-04-16T20:45:46.512Z,7.88
2023-04-16T20:48:12.963Z,9.23
2023-04-16T20:50:39.422Z,9.23
2023-04-16T20:53:05.806Z,6.18
2023-04-16T20:55:32.225Z,5.35
2023-04-16T20:57:58.642Z,7.30
2023-04-16T21:03:28.585Z,4.82
2023-04-16T21:05:55.704Z,4.38
2023-04-16T21:08:24.495Z,4.25
2023-04-16T21:10:53.786Z,3.45
2023-04-16T21:13:37.004Z,3.78
2023-04-16T21:16:27.927Z,4.50
2023-04-16T21:19:24.373Z,3.70
2023-04-16T21:22:01.952Z,3.42
2023-04-16T21:24:35.591Z,3.75
2023-04-16T21:27:17.719Z,5.47
2023-04-16T21:29:47.243Z,4.15
2023-04-16T21:34:46.706Z,3.80
2023-04-16T21:37:26.898Z,4.00
2023-04-16T21:42:36.780Z,3.88
2023-04-16T21:45:05.744Z,3.63
2023-04-16T21:47:32.822Z,3.72
2023-04-16T21:50:12.039Z,5.15
2023-04-16T21:52:46.646Z,3.03
2023-04-16T21:55:27.348Z,4.07
2023-04-16T22:00:52.804Z,2.88
2023-04-16T22:03:40.742Z,3.05
2023-04-16T22:06:10.381Z,3.85
2023-04-16T22:08:44.459Z,3.95
2023-04-16T22:11:11.262Z,3.10
2023-04-16T22:13:44.288Z,2.60
2023-04-16T22:16:18.413Z,2.97
2023-04-16T22:18:52.209Z,2.83
2023-04-16T22:21:38.195Z,2.92
2023-04-16T22:24:09.001Z,3.88
2023-04-16T22:26:41.374Z,2.70
2023-04-16T22:35:24.611Z,3.85
2023-04-16T22:41:47.815Z,2.78
2023-04-16T22:44:50.059Z,2.83
2023-04-16T22:47:39.148Z,2.67
2023-04-16T22:50:28.659Z,2.55
2023-04-16T22:55:39.570Z,4.22
2023-04-16T22:58:14.266Z,2.35
2023-04-16T23:04:10.970Z,3.47
2023-04-16T23:09:52.650Z,3.03
2023-04-16T23:25:19.173Z,4.22
2023-04-16T23:29:45.391Z,9.30
2023-04-16T23:32:11.406Z,4.80
2023-04-16T23:43:06.031Z,6.25
2023-04-16T23:51:31.692Z,4.38
